Time;durP1;ratioP1;P1;durP2;ratioP2;P2;SDS_P1;SDS_P2;PMS_P1;PMS_P2;Temp;Humidity;BMP_temperature;BMP_pressure;BME280_temperature;BME280_humidity;BME280_pressure;Samples;Min_cycle;Max_cycle;Signal;HPM_P1;HPM_P2
2022/11/26 00:02:29;;;;;;;40.17;15.30;;;6.40;99.90;;;4.77;100.00;101479.00;4821464;29;20375;-74
2022/11/26 00:04:57;;;;;;;42.85;14.38;;;6.40;99.90;;;4.85;100.00;101481.78;4821587;29;20042;-74
2022/11/26 00:07:28;;;;;;;42.05;14.68;;;6.40;99.90;;;4.74;100.00;101472.06;4825717;29;20448;-74
2022/11/26 00:09:57;;;;;;;52.22;15.80;;;6.40;99.90;;;4.70;100.00;101474.22;4821248;29;20037;-75
2022/11/26 00:12:27;;;;;;;46.88;15.55;;;6.30;99.90;;;4.86;100.00;101478.06;4821525;29;20038;-76
2022/11/26 00:14:53;;;;;;;42.85;15.38;;;6.30;99.90;;;4.60;100.00;101471.63;4821694;29;20038;-75
2022/11/26 00:17:20;;;;;;;48.50;15.93;;;6.20;99.90;;;4.59;100.00;101485.31;4821563;29;20045;-74
2022/11/26 00:19:46;;;;;;;37.33;14.13;;;6.20;99.90;;;4.47;100.00;101485.53;4821615;29;20038;-75
2022/11/26 00:22:27;;;;;;;48.30;16.00;;;6.10;99.90;;;4.55;100.00;101494.72;4821419;29;20052;-74
2022/11/26 00:24:54;;;;;;;43.38;14.32;;;6.10;99.90;;;4.47;100.00;101488.22;4834888;29;20118;-74
2022/11/26 00:27:24;;;;;;;50.25;15.45;;;6.00;99.90;;;4.45;100.00;101492.13;4821260;29;20041;-74
2022/11/26 00:29:50;;;;;;;50.28;15.75;;;6.00;99.90;;;4.40;100.00;101492.56;4821360;29;20042;-74
2022/11/26 00:32:23;;;;;;;46.45;15.30;;;6.00;99.90;;;4.40;100.00;101484.47;4821285;29;20077;-75
2022/11/26 00:34:49;;;;;;;48.30;16.30;;;6.00;99.90;;;4.49;100.00;101489.94;4824544;29;20046;-75
2022/11/26 00:37:26;;;;;;;50.72;14.40;;;6.10;99.90;;;4.44;100.00;101490.41;4821218;29;20050;-75
2022/11/26 00:39:53;;;;;;;44.15;14.45;;;6.10;99.90;;;4.41;100.00;101502.38;4821133;29;20050;-75
2022/11/26 00:42:19;;;;;;;57.67;16.60;;;6.00;99.90;;;4.40;100.00;101494.44;4820748;29;20085;-75
2022/11/26 00:44:45;;;;;;;58.63;15.05;;;6.00;99.90;;;4.39;100.00;101495.44;4821178;29;20297;-75
2022/11/26 00:47:11;;;;;;;48.13;15.63;;;6.00;99.90;;;4.38;100.00;101510.78;4820638;29;20038;-76
2022/11/26 00:49:37;;;;;;;53.30;15.73;;;5.90;99.90;;;4.35;100.00;101500.28;4821078;29;20091;-75
2022/11/26 00:52:12;;;;;;;51.00;15.80;;;6.00;99.90;;;4.47;100.00;101519.81;4820525;29;20050;-75
2022/11/26 00:54:38;;;;;;;61.17;15.93;;;6.00;99.90;;;4.45;100.00;101509.16;4820632;29;20069;-75
2022/11/26 00:57:03;;;;;;;53.47;15.30;;;6.10;99.90;;;4.44;100.00;101517.44;4820894;29;20070;-75
2022/11/26 00:59:29;;;;;;;52.90;15.02;;;6.10;99.90;;;4.41;100.00;101513.19;4821277;29;20117;-75
2022/11/26 01:01:55;;;;;;;59.25;15.88;;;6.00;99.90;;;4.36;100.00;101515.50;4820687;29;20042;-76
2022/11/26 01:04:21;;;;;;;51.95;15.75;;;6.00;99.90;;;4.30;100.00;101526.94;4821058;29;20035;-76
2022/11/26 01:06:46;;;;;;;56.30;15.07;;;6.00;99.90;;;4.30;100.00;101524.22;4821038;29;20546;-78
2022/11/26 01:09:18;;;;;;;50.97;14.80;;;5.90;99.90;;;4.25;100.00;101531.97;4820452;29;20053;-77
2022/11/26 01:11:45;;;;;;;47.35;14.18;;;5.90;99.90;;;4.21;100.00;101534.09;4821129;29;20041;-78
2022/11/26 01:14:19;;;;;;;51.72;14.32;;;5.80;99.90;;;4.09;100.00;101522.66;4820485;29;20090;-77
2022/11/26 01:16:47;;;;;;;44.97;13.38;;;5.80;99.90;;;4.14;100.00;101533.84;4823720;29;20030;-78
2022/11/26 01:19:15;;;;;;;44.45;13.68;;;5.80;99.90;;;4.17;100.00;101535.41;4832246;29;20045;-78
2022/11/26 01:21:42;;;;;;;52.53;13.43;;;5.80;99.90;;;4.29;100.00;101538.75;4821370;29;20034;-78
2022/11/26 01:24:07;;;;;;;52.78;13.85;;;5.90;99.90;;;4.34;100.00;101541.81;4820364;29;20149;-78
2022/11/26 01:26:39;;;;;;;58.47;14.48;;;5.90;99.90;;;4.25;100.00;101540.06;4826711;29;20079;-78
2022/11/26 01:29:05;;;;;;;52.38;13.32;;;5.90;99.90;;;4.23;100.00;101545.59;4819206;29;20111;-77
2022/11/26 01:31:32;;;;;;;42.33;12.82;;;5.90;99.90;;;4.28;100.00;101551.38;4821129;29;20030;-77
2022/11/26 01:33:58;;;;;;;48.85;12.73;;;5.90;99.90;;;4.28;100.00;101553.25;4820087;29;20322;-77
2022/11/26 01:36:31;;;;;;;53.28;13.55;;;5.90;99.90;;;4.26;100.00;101549.84;4823002;29;20134;-76
2022/11/26 01:39:14;;;;;;;51.08;13.15;;;5.90;99.90;;;4.38;100.00;101545.09;4837906;29;20041;-77
2022/11/26 01:42:09;;;;;;;47.28;11.93;;;6.00;99.90;;;4.37;100.00;101549.63;4839849;29;20478;-77
2022/11/26 01:44:36;;;;;;;38.78;11.88;;;5.90;99.90;;;4.32;100.00;101560.03;4820143;29;20112;-77
2022/11/26 01:47:28;;;;;;;45.65;11.57;;;5.90;99.90;;;4.33;100.00;101559.03;4821492;29;20037;-77
2022/11/26 01:50:47;;;;;;;49.13;12.95;;;5.90;99.90;;;4.25;100.00;101551.69;4820955;29;20486;-77
2022/11/26 01:53:25;;;;;;;39.63;10.57;;;5.90;99.90;;;4.21;100.00;101565.66;4822080;29;20402;-77
2022/11/26 01:55:59;;;;;;;41.72;11.10;;;5.80;99.90;;;4.15;100.00;101570.66;4819862;29;20074;-77
2022/11/26 01:58:39;;;;;;;41.22;10.63;;;5.80;99.90;;;4.13;100.00;101561.88;4820018;29;20426;-77
2022/11/26 02:01:05;;;;;;;36.65;10.32;;;5.80;99.90;;;4.11;100.00;101565.72;4820124;29;20395;-77
2022/11/26 02:03:40;;;;;;;43.65;10.73;;;5.70;99.90;;;4.09;100.00;101567.72;4819586;29;20030;-77
2022/11/26 02:06:16;;;;;;;56.75;11.57;;;5.70;99.90;;;4.10;100.00;101570.28;4819712;29;20041;-76
2022/11/26 02:08:42;;;;;;;40.28;10.98;;;5.70;99.90;;;4.06;100.00;101563.47;4818804;29;20618;-76
2022/11/26 02:11:19;;;;;;;41.67;11.02;;;5.70;99.90;;;4.04;100.00;101573.59;4819490;29;20094;-76
2022/11/26 02:13:51;;;;;;;37.55;10.73;;;5.70;99.90;;;4.06;100.00;101577.00;4819501;29;20030;-77
2022/11/26 02:16:49;;;;;;;44.33;11.02;;;5.70;99.90;;;4.05;100.00;101569.88;4819116;29;20030;-77
2022/11/26 02:19:39;;;;;;;40.47;10.80;;;5.70;99.90;;;4.05;100.00;101578.00;4819860;29;20090;-77
2022/11/26 02:22:28;;;;;;;53.72;11.93;;;5.70;99.90;;;4.01;100.00;101585.53;4819610;29;20486;-77
2022/11/26 02:25:19;;;;;;;38.70;11.32;;;5.70;99.90;;;4.06;100.00;101582.38;4819756;29;20042;-77
2022/11/26 02:28:12;;;;;;;36.72;10.15;;;5.70;99.90;;;3.96;100.00;101595.94;4825623;29;20046;-77
2022/11/26 02:30:46;;;;;;;39.70;10.85;;;5.60;99.90;;;3.99;100.00;101594.81;4819625;29;20057;-77
2022/11/26 02:33:27;;;;;;;43.38;10.43;;;5.60;99.90;;;3.89;100.00;101592.97;4819537;29;20368;-77
2022/11/26 02:36:08;;;;;;;37.78;10.95;;;5.60;99.90;;;3.85;100.00;101588.06;4819781;29;20064;-77
2022/11/26 02:38:38;;;;;;;43.90;11.00;;;5.50;99.90;;;3.93;100.00;101595.38;4819595;29;20415;-78
2022/11/26 02:41:04;;;;;;;44.85;10.77;;;5.60;99.90;;;3.90;100.00;101596.53;4819709;29;20051;-78
2022/11/26 02:43:33;;;;;;;42.15;11.20;;;5.50;99.90;;;3.98;100.00;101595.81;4819347;29;20484;-77
2022/11/26 02:46:07;;;;;;;42.78;10.27;;;5.60;99.90;;;3.93;100.00;101598.94;4819852;29;20026;-77
2022/11/26 02:48:40;;;;;;;39.58;11.13;;;5.60;99.90;;;3.83;100.00;101590.88;4819637;29;20130;-77
2022/11/26 02:51:21;;;;;;;41.42;11.80;;;5.60;99.90;;;3.86;100.00;101605.94;4819741;29;20117;-77
2022/11/26 02:53:50;;;;;;;42.22;11.07;;;5.50;99.90;;;3.89;100.00;101614.56;4820134;29;20047;-77
2022/11/26 02:56:26;;;;;;;47.75;11.32;;;5.50;99.90;;;3.92;100.00;101617.97;4820080;29;20057;-77
2022/11/26 02:58:55;;;;;;;35.97;10.80;;;5.60;99.90;;;3.85;100.00;101606.94;4822359;29;20045;-77
2022/11/26 03:01:49;;;;;;;46.35;11.20;;;5.50;99.90;;;3.86;100.00;101614.88;4822789;29;20057;-76
2022/11/26 03:04:25;;;;;;;37.75;10.77;;;5.50;99.90;;;3.88;100.00;101620.97;4822000;29;20044;-77
2022/11/26 03:06:55;;;;;;;41.33;10.70;;;5.50;99.90;;;3.88;100.00;101620.97;4822420;29;20038;-77
2022/11/26 03:09:22;;;;;;;39.20;10.90;;;5.50;99.90;;;3.84;100.00;101622.28;4822674;29;20040;-77
2022/11/26 03:11:48;;;;;;;47.97;10.70;;;5.50;99.90;;;3.83;100.00;101627.81;4822988;29;20205;-77
2022/11/26 03:14:14;;;;;;;37.45;10.13;;;5.50;99.90;;;3.74;100.00;101629.56;4822657;29;20112;-78
2022/11/26 03:16:40;;;;;;;47.58;9.95;;;5.40;99.90;;;3.69;100.00;101629.16;4822239;29;20554;-78
2022/11/26 03:19:06;;;;;;;52.70;10.63;;;5.40;99.90;;;3.77;100.00;101637.38;4823425;29;20034;-77
2022/11/26 03:21:32;;;;;;;37.25;9.80;;;5.40;99.90;;;3.70;100.00;101639.81;4822804;29;20045;-77
2022/11/26 03:23:59;;;;;;;35.90;9.98;;;5.40;99.90;;;3.75;100.00;101647.47;4822537;29;20056;-77
2022/11/26 03:26:25;;;;;;;38.20;9.75;;;5.40;99.90;;;3.76;100.00;101643.78;4824942;29;20038;-77
2022/11/26 03:28:50;;;;;;;42.30;10.25;;;5.40;99.90;;;3.74;100.00;101641.22;4822917;29;20043;-77
2022/11/26 03:31:16;;;;;;;33.80;10.18;;;5.40;99.90;;;3.79;100.00;101643.47;4822187;29;20044;-76
2022/11/26 03:33:42;;;;;;;36.13;11.40;;;5.50;99.90;;;3.79;100.00;101646.19;4822284;29;20042;-77
2022/11/26 03:36:08;;;;;;;40.90;11.30;;;5.40;99.90;;;3.69;100.00;101631.84;4822313;29;20031;-77
2022/11/26 03:38:34;;;;;;;34.15;10.85;;;5.40;99.90;;;3.70;100.00;101645.19;4822494;29;20440;-76
2022/11/26 03:41:03;;;;;;;41.38;12.00;;;5.40;99.90;;;3.69;100.00;101640.81;4822256;29;20038;-77
2022/11/26 03:43:29;;;;;;;43.50;12.77;;;5.40;99.90;;;3.54;100.00;101645.81;4822455;29;20363;-76
2022/11/26 03:45:56;;;;;;;46.08;13.85;;;5.20;99.90;;;3.45;100.00;101642.16;4822063;29;20042;-76
2022/11/26 03:48:21;;;;;;;37.00;12.55;;;5.20;99.90;;;3.47;100.00;101638.44;4821821;29;20096;-76
2022/11/26 03:50:47;;;;;;;37.60;13.80;;;5.10;99.90;;;3.39;100.00;101645.44;4821965;29;20482;-76
2022/11/26 03:53:13;;;;;;;42.10;14.93;;;5.10;99.90;;;3.33;100.00;101647.84;4822113;29;20094;-77
2022/11/26 03:55:39;;;;;;;49.03;15.13;;;5.00;99.90;;;3.21;100.00;101653.41;4822116;29;20731;-76
2022/11/26 03:58:04;;;;;;;38.22;13.55;;;4.90;99.90;;;3.09;100.00;101658.09;4821699;29;20512;-76
2022/11/26 04:00:30;;;;;;;45.58;14.00;;;4.80;99.90;;;3.14;100.00;101655.81;4822668;29;20099;-75
2022/11/26 04:02:56;;;;;;;54.80;14.73;;;4.90;99.90;;;3.15;100.00;101659.34;4822296;29;20565;-77
2022/11/26 04:05:22;;;;;;;44.38;13.73;;;4.90;99.90;;;3.14;100.00;101654.97;4822054;29;20340;-77
2022/11/26 04:07:47;;;;;;;56.13;15.27;;;4.90;99.90;;;3.15;100.00;101664.75;4822179;29;20046;-77
2022/11/26 04:10:13;;;;;;;55.67;14.88;;;4.80;99.90;;;3.18;100.00;101659.06;4820983;29;20070;-77
2022/11/26 04:12:39;;;;;;;55.70;15.68;;;4.90;99.90;;;3.30;100.00;101668.72;4821807;29;20046;-78
2022/11/26 04:15:05;;;;;;;53.90;15.82;;;5.00;99.90;;;3.31;100.00;101662.34;4821704;29;20034;-77
2022/11/26 04:17:31;;;;;;;51.35;16.13;;;5.00;99.90;;;3.29;100.00;101653.53;4821879;29;20038;-77
2022/11/26 04:20:00;;;;;;;48.70;15.63;;;5.00;99.90;;;3.31;100.00;101670.41;4821785;29;20110;-77
2022/11/26 04:22:26;;;;;;;48.05;15.10;;;5.00;99.90;;;3.11;100.00;101666.91;4822448;29;20046;-77
2022/11/26 04:24:51;;;;;;;44.78;14.40;;;4.80;99.90;;;2.91;100.00;101665.19;4821914;29;20042;-76
2022/11/26 04:27:17;;;;;;;45.35;14.90;;;4.70;99.90;;;2.80;100.00;101661.66;4823254;29;20034;-77
2022/11/26 04:29:43;;;;;;;47.80;14.50;;;4.50;99.90;;;2.80;100.00;101672.44;4823161;29;20070;-77
2022/11/26 04:32:09;;;;;;;44.63;13.48;;;4.50;99.90;;;2.82;100.00;101667.75;4821209;29;20042;-76
2022/11/26 04:34:35;;;;;;;42.15;13.52;;;4.50;99.90;;;2.67;100.00;101672.69;4821175;29;20077;-77
2022/11/26 04:37:00;;;;;;;42.60;13.38;;;4.40;99.90;;;2.63;100.00;101676.63;4821046;29;20082;-77
2022/11/26 04:39:26;;;;;;;45.90;13.63;;;4.30;99.90;;;2.62;100.00;101674.94;4821782;29;20026;-76
2022/11/26 04:41:52;;;;;;;44.33;14.70;;;4.30;99.90;;;2.55;100.00;101665.72;4830760;29;20038;-78
2022/11/26 04:44:18;;;;;;;50.83;14.88;;;4.30;99.90;;;2.69;100.00;101683.31;4832840;29;20062;-78
2022/11/26 04:46:44;;;;;;;55.38;16.40;;;4.30;99.90;;;2.75;100.00;101682.75;4845730;29;20533;-77
2022/11/26 04:49:09;;;;;;;47.35;14.90;;;4.40;99.90;;;2.73;100.00;101672.13;4821364;29;20030;-76
2022/11/26 04:51:35;;;;;;;48.60;15.82;;;4.40;99.90;;;2.71;100.00;101675.94;4820964;29;20066;-78
2022/11/26 04:54:01;;;;;;;44.67;15.18;;;4.40;99.90;;;2.67;100.00;101683.47;4821513;29;20038;-77
2022/11/26 04:56:27;;;;;;;52.95;16.40;;;4.40;99.90;;;2.67;100.00;101693.38;4820146;29;20031;-76
2022/11/26 04:58:53;;;;;;;57.28;16.65;;;4.40;99.90;;;2.71;100.00;101686.72;4820908;29;20439;-77
2022/11/26 05:01:18;;;;;;;63.15;18.80;;;4.40;99.90;;;2.69;100.00;101692.28;4821272;29;20042;-77
2022/11/26 05:03:44;;;;;;;59.90;17.67;;;4.40;99.90;;;2.70;100.00;101688.59;4820739;29;20030;-76
2022/11/26 05:06:10;;;;;;;62.72;18.88;;;4.40;99.90;;;2.71;100.00;101687.59;4821518;29;20490;-77
2022/11/26 05:08:36;;;;;;;63.15;19.20;;;4.50;99.90;;;2.79;100.00;101689.59;4821090;29;20070;-77
2022/11/26 05:11:02;;;;;;;60.05;18.38;;;4.50;99.90;;;2.74;100.00;101691.81;4820583;29;20027;-76
2022/11/26 05:13:28;;;;;;;58.08;18.90;;;4.50;99.90;;;2.88;100.00;101699.53;4821152;29;20386;-76
2022/11/26 05:15:54;;;;;;;74.60;20.30;;;4.60;99.90;;;2.93;100.00;101701.81;4826841;29;20066;-76
2022/11/26 05:18:20;;;;;;;73.18;20.33;;;4.60;99.90;;;2.88;100.00;101709.44;4821085;29;20151;-77
2022/11/26 05:20:46;;;;;;;65.43;20.13;;;4.60;99.90;;;2.95;100.00;101715.13;4820851;29;20212;-77
2022/11/26 05:23:12;;;;;;;69.32;21.15;;;4.60;99.90;;;2.87;100.00;101713.13;4822940;29;20048;-76
2022/11/26 05:25:38;;;;;;;70.55;20.33;;;4.60;99.90;;;2.95;100.00;101716.00;4823397;29;20042;-77
2022/11/26 05:28:04;;;;;;;68.28;20.10;;;4.60;99.90;;;2.98;100.00;101715.72;4820547;29;20042;-76
2022/11/26 05:30:30;;;;;;;74.88;20.65;;;4.70;99.90;;;2.98;100.00;101712.16;4820594;29;20034;-76
2022/11/26 05:32:55;;;;;;;73.22;19.33;;;4.70;99.90;;;3.00;100.00;101724.50;4820596;29;20056;-76
2022/11/26 05:35:21;;;;;;;66.93;19.55;;;4.70;99.90;;;3.04;100.00;101724.22;4820514;29;20450;-76
2022/11/26 05:37:47;;;;;;;75.47;20.67;;;4.70;99.90;;;3.14;100.00;101722.38;4837320;29;20073;-76
2022/11/26 05:40:13;;;;;;;75.53;20.02;;;4.80;99.90;;;3.07;100.00;101715.84;4820762;29;20090;-76
2022/11/26 05:42:39;;;;;;;70.93;20.25;;;4.70;99.90;;;3.11;100.00;101737.00;4820512;29;20026;-76
2022/11/26 05:45:05;;;;;;;76.97;20.27;;;4.80;99.90;;;3.20;100.00;101729.91;4820101;29;20042;-77
2022/11/26 05:47:31;;;;;;;72.82;19.65;;;4.80;99.90;;;3.12;100.00;101733.31;4820469;29;20447;-76
2022/11/26 05:49:57;;;;;;;72.20;20.90;;;4.80;99.90;;;3.19;100.00;101738.16;4820505;29;20038;-77
2022/11/26 05:52:24;;;;;;;64.13;19.65;;;4.80;99.90;;;3.18;100.00;101729.19;4820383;29;20042;-76
2022/11/26 05:54:49;;;;;;;66.63;18.33;;;4.80;99.90;;;3.30;100.00;101733.47;4820643;29;20038;-77
2022/11/26 05:57:15;;;;;;;75.65;20.92;;;4.90;99.90;;;3.38;100.00;101735.44;4823906;29;20447;-76
2022/11/26 05:59:41;;;;;;;75.97;18.83;;;5.00;99.90;;;3.28;100.00;101743.53;4820268;29;20482;-77
2022/11/26 06:02:06;;;;;;;71.88;18.55;;;5.00;99.90;;;3.33;100.00;101745.81;4819995;29;20402;-76
2022/11/26 06:04:32;;;;;;;69.13;20.67;;;5.00;99.90;;;3.29;100.00;101742.56;4820250;29;20386;-76
2022/11/26 06:06:58;;;;;;;68.43;19.20;;;5.00;99.90;;;3.35;100.00;101751.94;4820252;29;20046;-76
2022/11/26 06:09:24;;;;;;;76.32;19.35;;;5.00;99.90;;;3.36;100.00;101748.22;4820176;29;20046;-76
2022/11/26 06:11:50;;;;;;;67.47;19.48;;;5.00;99.90;;;3.36;100.00;101744.66;4819694;29;20057;-76
2022/11/26 06:14:16;;;;;;;69.20;19.33;;;5.00;99.90;;;3.43;100.00;101751.19;4819891;29;20042;-76
2022/11/26 06:16:42;;;;;;;78.32;21.10;;;5.10;99.90;;;3.43;100.00;101748.50;4820453;29;20117;-77
2022/11/26 06:19:10;;;;;;;62.70;19.38;;;5.10;99.90;;;3.39;100.00;101749.78;4819363;29;20144;-77
2022/11/26 06:21:36;;;;;;;;;;;5.10;99.90;;;3.34;100.00;101742.13;4820657;29;20030;-77
2022/11/26 06:24:02;;;;;;;80.35;20.77;;;5.10;99.90;;;3.35;100.00;101751.06;4833826;29;19917;-77
2022/11/26 06:26:27;;;;;;;69.78;19.02;;;5.00;99.90;;;3.29;100.00;101761.44;4823333;29;20022;-76
2022/11/26 06:28:54;;;;;;;72.55;20.35;;;5.00;99.90;;;3.33;100.00;101772.81;4819904;29;20031;-75
2022/11/26 06:31:20;;;;;;;73.88;21.08;;;5.00;99.90;;;3.33;100.00;101775.50;4819504;29;20031;-74
2022/11/26 06:33:46;;;;;;;72.90;20.02;;;5.00;99.90;;;3.36;100.00;101777.03;4817828;29;20036;-76
2022/11/26 06:36:12;;;;;;;67.05;20.25;;;5.10;99.90;;;3.34;100.00;101779.03;4820203;29;20598;-74
2022/11/26 06:38:38;;;;;;;73.03;19.33;;;5.00;99.90;;;3.33;100.00;101786.28;4831226;29;20030;-75
2022/11/26 06:41:07;;;;;;;64.43;19.80;;;5.10;99.90;;;3.34;100.00;101785.28;4833054;29;20549;-74
2022/11/26 06:43:34;;;;;;;67.53;20.50;;;5.00;99.90;;;3.30;100.00;101779.31;4830410;29;20038;-73
2022/11/26 06:46:06;;;;;;;72.30;19.85;;;5.10;99.90;;;3.38;100.00;101791.25;4829772;29;20034;-75
2022/11/26 06:48:34;;;;;;;72.22;18.83;;;5.00;99.90;;;3.38;100.00;101793.94;4832457;29;20034;-75
2022/11/26 06:51:06;;;;;;;77.13;20.05;;;5.00;99.90;;;3.26;100.00;101782.44;4824333;29;20069;-76
2022/11/26 06:53:32;;;;;;;71.05;17.85;;;5.00;99.90;;;3.33;100.00;101797.06;4824787;29;20511;-79
2022/11/26 06:56:03;;;;;;;74.38;20.17;;;5.10;99.90;;;3.31;100.00;101786.41;4828982;29;20390;-79
2022/11/26 06:58:30;;;;;;;67.65;19.42;;;5.10;99.90;;;3.39;100.00;101809.13;4826078;29;20049;-77
2022/11/26 07:00:56;;;;;;;68.03;19.85;;;5.10;99.90;;;3.37;100.00;101803.91;4826419;29;20041;-77
2022/11/26 07:03:23;;;;;;;64.03;18.90;;;5.10;99.90;;;3.39;100.00;101814.53;4821230;29;20033;-76
2022/11/26 07:05:49;;;;;;;76.28;19.80;;;5.10;99.90;;;3.36;100.00;101812.13;4823806;29;20621;-75
2022/11/26 07:08:15;;;;;;;66.40;18.35;;;5.00;99.90;;;3.38;100.00;101826.31;4820096;29;20485;-76
2022/11/26 07:10:41;;;;;;;71.35;19.48;;;5.10;99.90;;;3.35;100.00;101821.19;4823995;29;20065;-77
2022/11/26 07:13:10;;;;;;;68.13;18.35;;;5.10;99.90;;;3.33;100.00;101826.75;4823513;29;20602;-76
2022/11/26 07:15:38;;;;;;;71.03;17.15;;;5.00;99.90;;;3.39;100.00;101822.63;4834575;29;20075;-76
2022/11/26 07:18:04;;;;;;;67.95;18.40;;;5.10;99.90;;;3.40;100.00;101829.72;4822633;29;20042;-76
2022/11/26 07:20:30;;;;;;;64.53;18.33;;;5.10;99.90;;;3.41;100.00;101817.94;4822524;29;20047;-77
2022/11/26 07:22:56;;;;;;;73.05;18.50;;;5.10;99.90;;;3.38;100.00;101826.31;4825313;29;20045;-77
2022/11/26 07:25:21;;;;;;;68.07;18.30;;;5.10;99.90;;;3.45;100.00;101838.28;4822433;29;20030;-79
2022/11/26 07:27:47;;;;;;;65.75;18.17;;;5.10;99.90;;;3.52;100.00;101838.53;4819042;29;20038;-78
2022/11/26 07:30:13;;;;;;;64.32;18.92;;;5.20;99.90;;;3.52;100.00;101841.22;4819706;29;20050;-79
2022/11/26 07:32:39;;;;;;;62.13;18.20;;;5.20;99.90;;;3.52;100.00;101836.72;4820110;29;20034;-79
2022/11/26 07:35:06;;;;;;;61.65;18.60;;;5.20;99.90;;;3.51;100.00;101835.00;4819362;29;20126;-80
2022/11/26 07:37:32;;;;;;;57.40;17.92;;;5.20;99.90;;;3.51;100.00;101845.78;4821220;29;21064;-79
2022/11/26 07:39:58;;;;;;;59.25;16.98;;;5.20;99.90;;;3.54;100.00;101847.34;4819840;29;20038;-79
2022/11/26 07:42:24;;;;;;;62.03;17.55;;;5.20;99.90;;;3.53;100.00;101843.81;4823116;29;20038;-79
2022/11/26 07:44:50;;;;;;;66.05;18.20;;;5.20;99.90;;;3.54;100.00;101850.91;4820048;29;20494;-79
2022/11/26 07:47:16;;;;;;;63.45;17.33;;;5.20;99.90;;;3.53;100.00;101848.34;4826516;29;20041;-79
2022/11/26 07:49:41;;;;;;;56.30;17.02;;;5.20;99.90;;;3.47;100.00;101849.78;4838345;29;20486;-81
2022/11/26 07:52:07;;;;;;;66.20;18.70;;;5.20;99.90;;;3.54;100.00;101852.75;4825459;29;20591;-79
2022/11/26 07:54:33;;;;;;;65.90;17.77;;;5.20;99.90;;;3.55;100.00;101863.41;4822113;29;20076;-79
2022/11/26 07:56:59;;;;;;;59.75;18.02;;;5.20;99.90;;;3.59;100.00;101864.81;4828232;29;20050;-80
2022/11/26 07:59:25;;;;;;;67.93;18.33;;;5.30;99.90;;;3.72;100.00;101866.41;4821699;29;20059;-79
2022/11/26 08:01:51;;;;;;;61.30;18.00;;;5.30;99.90;;;3.72;100.00;101874.50;4822122;29;20394;-80
2022/11/26 08:04:16;;;;;;;63.35;19.13;;;5.40;99.90;;;3.78;100.00;101879.34;4822629;29;20501;-79
2022/11/26 08:06:42;;;;;;;65.63;19.60;;;5.40;99.90;;;3.87;100.00;101878.47;4823305;29;20045;-79
2022/11/26 08:09:10;;;;;;;70.80;20.35;;;5.50;99.90;;;3.97;100.00;101883.00;4822974;29;20066;-79
2022/11/26 08:11:36;;;;;;;77.35;18.98;;;5.60;99.90;;;4.03;100.00;101886.00;4830800;29;20481;-78
2022/11/26 08:14:08;;;;;;;65.03;19.75;;;5.70;99.90;;;4.14;100.00;101885.00;4822916;29;20415;-79
2022/11/26 08:16:34;;;;;;;68.32;19.20;;;5.80;99.90;;;4.25;100.00;101886.69;4822305;29;20083;-80
2022/11/26 08:19:05;;;;;;;68.18;19.92;;;5.90;99.90;;;4.30;100.00;101887.09;4827218;29;20071;-77
2022/11/26 08:21:31;;;;;;;59.08;18.40;;;5.90;99.90;;;4.47;100.00;101885.50;4835913;29;20038;-78
2022/11/26 08:23:57;;;;;;;61.08;18.58;;;6.10;99.90;;;4.44;100.00;101871.44;4824663;29;20450;-78
2022/11/26 08:26:24;;;;;;;64.30;18.60;;;6.10;99.90;;;4.57;100.00;101890.03;4824524;29;20031;-78
2022/11/26 08:28:53;;;;;;;64.63;20.25;;;6.20;99.90;;;4.69;100.00;101905.06;4821835;29;20473;-78
2022/11/26 08:31:21;;;;;;;65.30;19.90;;;6.30;99.90;;;4.71;100.00;101905.78;4823467;29;20035;-76
2022/11/26 08:33:46;;;;;;;63.80;19.67;;;6.40;99.90;;;4.78;100.00;101902.50;4819470;29;20034;-77
2022/11/26 08:36:13;;;;;;;56.75;18.88;;;6.40;99.90;;;4.95;100.00;101915.22;4821001;29;20038;-78
2022/11/26 08:38:38;;;;;;;66.70;18.67;;;6.50;99.90;;;5.04;100.00;101919.75;4835118;29;20466;-77
2022/11/26 08:41:12;;;;;;;54.10;18.30;;;6.60;99.90;;;5.10;100.00;101922.88;4841796;29;20040;-77
2022/11/26 08:43:39;;;;;;;60.92;18.73;;;6.60;99.90;;;5.21;100.00;101930.78;4837666;29;20546;-77
2022/11/26 08:46:06;;;;;;;60.75;18.45;;;6.80;99.90;;;5.36;100.00;101941.13;4825360;29;20490;-77
2022/11/26 08:48:33;;;;;;;55.72;18.77;;;6.90;99.90;;;5.56;100.00;101956.22;4822845;29;20030;-79
2022/11/26 08:51:09;;;;;;;55.35;16.77;;;7.00;99.90;;;5.69;100.00;101960.44;4822062;29;20033;-79
2022/11/26 08:53:37;;;;;;;54.83;18.02;;;7.20;99.90;;;5.73;100.00;101964.53;4832849;29;20688;-78
2022/11/26 08:56:07;;;;;;;42.83;16.05;;;7.30;99.90;;;5.70;100.00;101968.44;4821295;29;20042;-78
2022/11/26 08:58:36;;;;;;;50.17;16.30;;;7.20;99.90;;;5.80;100.00;101991.88;4822130;29;20060;-78
2022/11/26 09:01:18;;;;;;;42.80;15.02;;;7.30;99.90;;;5.79;100.00;101987.47;4821505;29;20714;-78
2022/11/26 09:03:50;;;;;;;36.72;14.35;;;7.30;99.90;;;5.89;100.00;101999.94;4821234;29;20894;-77
2022/11/26 09:06:17;;;;;;;40.65;14.82;;;7.40;99.90;;;6.05;100.00;102003.84;4824545;29;20042;-75
2022/11/26 09:11:27;;;;;;;44.90;14.00;;;7.50;99.90;;;6.18;100.00;102020.59;4831293;29;20037;-74
2022/11/26 09:13:56;;;;;;;36.45;12.90;;;7.60;99.90;;;6.30;100.00;102031.19;4822274;29;20066;-76
2022/11/26 09:16:22;;;;;;;33.78;12.88;;;7.70;99.90;;;6.26;100.00;102030.66;4821982;29;20030;-76
2022/11/26 09:18:50;;;;;;;33.33;13.10;;;7.70;99.90;;;6.30;100.00;102028.47;4821874;29;20034;-75
2022/11/26 09:21:18;;;;;;;35.72;12.85;;;7.70;99.90;;;6.19;100.00;102025.00;4821341;29;20070;-78
2022/11/26 09:23:44;;;;;;;36.90;12.98;;;7.70;99.90;;;6.17;100.00;102028.88;4822706;29;20061;-78
2022/11/26 09:26:10;;;;;;;38.72;14.10;;;7.70;99.90;;;6.35;100.00;102030.75;4820961;29;20038;-77
2022/11/26 09:28:39;;;;;;;38.83;14.95;;;7.90;99.90;;;6.76;100.00;102031.94;4827027;29;20050;-77
2022/11/26 09:31:05;;;;;;;37.08;13.63;;;8.30;99.90;;;6.92;100.00;102038.50;4822442;29;20058;-78
2022/11/26 09:33:31;;;;;;;29.50;12.80;;;8.90;99.90;;;7.16;100.00;102037.81;4826157;29;20113;-80
2022/11/26 09:36:06;;;;;;;34.80;12.75;;;9.50;99.90;;;7.56;100.00;102035.47;4826745;29;20034;-78
2022/11/26 09:38:33;;;;;;;34.17;13.43;;;10.20;99.90;;;8.18;100.00;102050.63;4824552;29;20046;-75
2022/11/26 09:41:18;;;;;;;29.83;10.88;;;11.00;99.90;;;8.56;100.00;102057.53;4821611;29;20483;-79
2022/11/26 09:44:12;;;;;;;27.88;10.73;;;11.50;99.90;;;9.03;100.00;102054.13;4824899;29;20066;-75
2022/11/26 09:47:00;;;;;;;32.10;11.68;;;;;;;9.81;100.00;102067.16;4819940;29;20055;-75
2022/11/26 09:49:39;;;;;;;24.80;10.80;;;11.90;99.90;;;10.81;94.14;102072.03;4818086;29;20074;-74
2022/11/26 09:52:09;;;;;;;26.67;11.38;;;12.70;99.90;;;11.36;85.71;102069.97;4820034;29;20104;-75
2022/11/26 09:54:38;;;;;;;27.40;10.80;;;13.00;99.90;;;11.85;80.14;102063.06;4819287;29;20255;-75
2022/11/26 09:57:20;;;;;;;25.85;10.90;;;13.20;99.90;;;11.48;81.48;102068.47;4822409;29;20433;-78
2022/11/26 09:59:50;;;;;;;27.77;10.60;;;13.10;99.90;;;11.43;83.57;102076.38;4819837;29;20037;-75
2022/11/26 10:02:16;;;;;;;23.58;10.90;;;13.10;99.90;;;12.03;78.13;102072.78;4819741;29;20485;-76
2022/11/26 10:04:42;;;;;;;26.77;10.82;;;13.40;99.90;;;12.77;75.24;102081.78;4819039;29;20046;-75
2022/11/26 10:07:25;;;;;;;25.15;10.50;;;13.80;99.90;;;12.90;69.88;102081.91;4820914;29;20073;-75
2022/11/26 10:10:00;;;;;;;27.75;11.13;;;14.10;99.90;;;13.09;70.33;102076.78;4823460;29;20103;-76
2022/11/26 10:12:50;;;;;;;26.63;10.32;;;14.40;99.90;;;14.23;63.70;102085.66;4828516;29;20050;-75
2022/11/26 10:15:41;;;;;;;23.77;10.55;;;15.20;99.90;;;13.39;66.21;102090.25;4827601;29;20121;-78
2022/11/26 10:19:03;;;;;;;25.00;9.88;;;14.80;99.90;;;13.81;64.56;102098.59;4833512;29;20100;-77